createdAt,value
2018-11-10T00:02:01.308Z,95819.8
2018-11-10T00:06:57.107Z,95829.2
2018-11-10T00:11:52.535Z,95833.2
2018-11-10T00:16:48.187Z,95821.3
2018-11-10T00:21:44.247Z,95828
2018-11-10T00:26:39.663Z,95824
2018-11-10T00:31:35.258Z,95829.1
2018-11-10T00:36:31.038Z,95828.2
2018-11-10T00:41:26.865Z,95827.8
2018-11-10T00:46:22.497Z,95826.7
2018-11-10T00:51:18.328Z,95819.7
2018-11-10T00:56:14.109Z,95820.5
2018-11-10T01:01:10.125Z,95829
2018-11-10T01:06:05.783Z,95824
2018-11-10T01:11:01.422Z,95817.8
2018-11-10T01:15:57.031Z,95814.6
2018-11-10T01:20:52.940Z,95814.9
2018-11-10T01:25:48.561Z,95898.5
2018-11-10T01:30:43.493Z,95809.6
2018-11-10T01:35:39.228Z,95803.7
2018-11-10T01:40:35.094Z,95810.8
2018-11-10T01:45:30.570Z,95814.5
2018-11-10T01:50:25.883Z,95818.5
2018-11-10T01:55:21.545Z,95809.4
2018-11-10T02:00:17.088Z,95799.2
2018-11-10T02:05:12.866Z,95803.7
2018-11-10T02:10:08.204Z,95803.1
2018-11-10T02:15:03.916Z,95800.4
2018-11-10T02:19:59.175Z,95717.2
2018-11-10T02:24:54.773Z,95801.8
2018-11-10T02:29:50.584Z,95799.7
2018-11-10T02:34:46.192Z,95803.1
2018-11-10T02:39:41.637Z,95807.7
2018-11-10T02:44:36.997Z,95803
2018-11-10T02:49:32.597Z,95815.7
2018-11-10T02:54:28.385Z,95804.3
2018-11-10T02:59:24.056Z,95808.5
2018-11-10T03:04:19.691Z,95820.8
2018-11-10T03:09:15.799Z,95812.4
2018-11-10T03:14:11.573Z,95828.2
2018-11-10T03:19:07.103Z,95790.1
2018-11-10T03:24:02.967Z,95827.3
2018-11-10T03:28:58.399Z,95909.6
2018-11-10T03:33:54.032Z,95816.2
2018-11-10T03:38:49.391Z,95878.7
2018-11-10T03:43:45.077Z,95817.2
2018-11-10T03:48:40.837Z,95813.3
2018-11-10T03:53:36.498Z,95813.5
2018-11-10T03:58:32.380Z,95807.3
2018-11-10T04:03:28.133Z,95822.2
2018-11-10T04:08:23.408Z,95813.1
2018-11-10T04:13:18.777Z,95818.9
2018-11-10T04:18:14.404Z,95820.1
2018-11-10T04:23:10.229Z,95820.9
2018-11-10T04:28:05.805Z,95828.8
2018-11-10T04:33:01.427Z,95816.7
2018-11-10T04:37:56.980Z,95818.7
2018-11-10T04:42:52.530Z,95824.8
2018-11-10T04:47:48.151Z,95818.7
2018-11-10T04:52:43.839Z,95869.8
2018-11-10T04:57:39.831Z,95818.7
2018-11-10T05:02:35.690Z,95814.8
2018-11-10T05:07:31.591Z,95796.4
2018-11-10T05:12:27.265Z,95823.8
2018-11-10T05:17:22.354Z,95829
2018-11-10T05:22:17.935Z,95842.7
2018-11-10T05:27:13.942Z,95834.9
2018-11-10T05:32:09.688Z,95833.3
2018-11-10T05:37:05.429Z,95826.6
2018-11-10T05:42:01.012Z,95821.6
2018-11-10T05:46:56.312Z,95825.3
2018-11-10T05:51:51.974Z,95823.5
2018-11-10T05:56:47.986Z,95833.4
2018-11-10T06:01:43.504Z,95841.6
2018-11-10T06:06:39.110Z,95883
2018-11-10T06:11:34.385Z,95841
2018-11-10T06:16:30.120Z,95864.1
2018-11-10T06:21:25.759Z,95843
2018-11-10T06:26:21.398Z,95836.5
2018-11-10T06:31:17.115Z,95854.3
2018-11-10T06:36:12.867Z,95855.3
2018-11-10T06:41:08.633Z,95859
2018-11-10T06:46:03.709Z,95864.5
2018-11-10T06:50:59.342Z,95863.8
2018-11-10T06:55:55.455Z,95863.4
2018-11-10T07:00:51.358Z,95842.1
2018-11-10T07:05:46.506Z,95871.1
2018-11-10T07:10:42.231Z,95862.2
2018-11-10T07:15:38.145Z,95859.8
2018-11-10T07:20:34.006Z,95871.8
2018-11-10T07:25:29.730Z,95859.6
2018-11-10T07:30:25.342Z,95857.2
2018-11-10T07:35:20.844Z,95849.5
2018-11-10T07:40:16.586Z,95852.1
2018-11-10T07:45:12.105Z,95933.2
2018-11-10T07:50:07.877Z,95839.3
2018-11-10T07:55:04.163Z,95845.1
2018-11-10T08:00:00.102Z,95839.2
2018-11-10T08:04:55.995Z,95863.7
2018-11-10T08:09:51.596Z,95838.1
2018-11-10T08:14:47.560Z,95839.1
2018-11-10T08:19:43.223Z,95832.2
2018-11-10T08:24:39.342Z,95839.5
2018-11-10T08:29:35.160Z,95833.9
2018-11-10T08:34:31.107Z,95831
2018-11-10T08:39:26.817Z,95836.6
2018-11-10T08:44:22.751Z,95831.5
2018-11-10T08:49:18.632Z,95709.5
2018-11-10T08:54:15.256Z,95881.1
2018-11-10T08:59:10.774Z,95821.9
2018-11-10T09:04:06.537Z,95820.1
2018-11-10T09:09:02.222Z,95819
2018-11-10T09:13:58.055Z,95808
2018-11-10T09:18:53.524Z,95804
2018-11-10T09:23:49.432Z,95805.8
2018-11-10T09:28:45.029Z,95800.4
2018-11-10T09:33:40.789Z,95787.5
2018-11-10T09:38:36.674Z,95798.4
2018-11-10T09:43:32.821Z,95791.4
2018-11-10T09:48:28.353Z,95776.3
2018-11-10T09:53:24.723Z,95863.6
2018-11-10T09:58:20.457Z,95849.9
2018-11-10T10:03:15.778Z,95765.5
2018-11-10T10:08:11.607Z,95835.1
2018-11-10T10:13:07.554Z,95743.5
2018-11-10T10:18:03.298Z,95740.3
2018-11-10T10:22:59.155Z,95814.2
2018-11-10T10:27:55.101Z,95721.5
2018-11-10T10:32:51.080Z,95782.8
2018-11-10T10:37:46.947Z,95817.8
2018-11-10T10:42:42.615Z,95793
2018-11-10T10:47:38.643Z,95734.6
2018-11-10T10:52:34.829Z,95777
2018-11-10T10:57:30.940Z,95796.3
2018-11-10T11:02:26.802Z,95768.5
2018-11-10T11:07:22.489Z,95681.8
2018-11-10T11:12:18.244Z,95749.2
2018-11-10T11:17:14.010Z,95743.5
2018-11-10T11:22:10.070Z,95743.7
2018-11-10T11:27:06.091Z,95737.2
2018-11-10T11:32:02.146Z,95738
2018-11-10T11:36:57.838Z,95725.9
2018-11-10T11:41:53.993Z,95727.9
2018-11-10T11:46:49.813Z,95729.5
2018-11-10T11:51:46.020Z,95723
2018-11-10T11:56:41.877Z,95689.5
2018-11-10T12:01:38.053Z,95707.2
2018-11-10T12:06:33.850Z,95625.5
2018-11-10T12:11:30.027Z,95694.3
2018-11-10T12:16:27.672Z,95576.7
2018-11-10T12:21:22.037Z,95691.6
2018-11-10T12:26:17.944Z,95684.6
2018-11-10T12:31:13.893Z,95687.6
2018-11-10T12:36:09.802Z,95681.6
2018-11-10T12:41:05.709Z,95689
2018-11-10T12:46:01.626Z,95687.8
2018-11-10T12:50:57.853Z,95687
2018-11-10T12:55:53.800Z,95678.7
2018-11-10T13:00:49.530Z,95595.9
2018-11-10T13:05:45.480Z,95678.5
2018-11-10T13:10:41.458Z,95673
2018-11-10T13:15:37.066Z,95675.4
2018-11-10T13:20:32.788Z,95673.1
2018-11-10T13:25:28.614Z,95669.8
2018-11-10T13:30:24.061Z,95587
2018-11-10T13:35:19.972Z,95579.4
2018-11-10T13:40:15.921Z,95670.8
2018-11-10T13:45:11.498Z,95572.4
2018-11-10T13:50:07.730Z,95581.6
2018-11-10T13:55:03.575Z,95659.9
2018-11-10T13:59:59.488Z,95659.4
2018-11-10T14:04:55.394Z,95656.6
2018-11-10T14:09:50.933Z,95657.2
2018-11-10T14:14:46.906Z,95654.4
2018-11-10T14:19:42.728Z,95655.4
2018-11-10T14:24:38.468Z,95579.6
2018-11-10T14:29:34.403Z,95662.1
2018-11-10T14:34:30.189Z,95671
2018-11-10T14:39:26.192Z,95587.1
2018-11-10T14:44:21.954Z,95666.7
2018-11-10T14:49:17.905Z,95591.7
2018-11-10T14:54:14.121Z,95589.2
2018-11-10T14:59:09.649Z,95677.1
2018-11-10T15:04:05.480Z,95593
2018-11-10T15:09:01.465Z,95675.5
2018-11-10T15:13:57.047Z,95674.6
2018-11-10T15:18:53.337Z,95681.5
2018-11-10T15:23:48.736Z,95614.4
2018-11-10T15:28:44.447Z,95684.5
2018-11-10T15:33:40.124Z,95686.3
2018-11-10T15:38:35.417Z,95687.1
2018-11-10T15:43:31.344Z,95611.5
2018-11-10T15:48:26.775Z,95693.1
2018-11-10T15:53:22.921Z,95615.4
2018-11-10T15:58:18.649Z,95020
2018-11-10T16:03:14.548Z,95630
2018-11-10T16:08:10.525Z,95704.4
2018-11-10T16:13:06.308Z,95625.4
2018-11-10T16:18:02.580Z,95707
2018-11-10T16:22:58.383Z,95714
2018-11-10T16:27:54.301Z,95716.7
2018-11-10T16:32:49.951Z,95699.9
2018-11-10T16:37:45.715Z,95722.8
2018-11-10T16:42:41.534Z,95729.9
2018-11-10T16:47:37.188Z,95954.9
2018-11-10T16:52:32.848Z,95734.9
2018-11-10T16:57:28.964Z,95739
2018-11-10T17:02:24.869Z,95656.9
2018-11-10T17:07:20.134Z,95805.1
2018-11-10T17:12:15.734Z,95741.7
2018-11-10T17:17:11.402Z,95756.9
2018-11-10T17:22:07.233Z,95756.3
2018-11-10T17:27:03.059Z,95770.7
2018-11-10T17:31:58.759Z,95761.7
2018-11-10T17:36:54.935Z,95773.6
2018-11-10T17:41:50.688Z,95727.3
2018-11-10T17:46:46.400Z,95781.2
2018-11-10T17:51:42.227Z,95778.4
2018-11-10T17:56:38.062Z,95730.8
2018-11-10T18:01:34.083Z,95698.5
2018-11-10T18:06:29.236Z,95697.6
2018-11-10T18:11:24.751Z,95702.3
2018-11-10T18:16:20.756Z,95719.4
2018-11-10T18:21:16.350Z,95765.7
2018-11-10T18:26:12.310Z,95710.5
2018-11-10T18:31:08.376Z,95883.9
2018-11-10T18:36:04.267Z,95820.3
2018-11-10T18:40:59.999Z,95726.3
2018-11-10T18:45:54.952Z,95731.4
2018-11-10T18:50:50.810Z,95761.5
2018-11-10T18:55:46.561Z,95808.9
2018-11-10T19:00:42.498Z,95724.2
2018-11-10T19:05:38.522Z,95734.7
2018-11-10T19:10:34.158Z,95727.9
2018-11-10T19:15:29.883Z,95736.7
2018-11-10T19:20:25.752Z,95752.3
2018-11-10T19:25:21.617Z,95745.3
2018-11-10T19:30:17.555Z,95752.1
2018-11-10T19:35:13.177Z,95767.8
2018-11-10T19:40:09.066Z,95760.4
2018-11-10T19:45:04.459Z,95766.2
2018-11-10T19:50:00.417Z,95772.5
2018-11-10T19:54:56.211Z,95774.1
2018-11-10T19:59:52.025Z,95776.3
2018-11-10T20:04:47.783Z,95789.1
2018-11-10T20:09:43.521Z,95860.5
2018-11-10T20:14:39.042Z,95792.7
2018-11-10T20:19:34.995Z,95786.7
2018-11-10T20:24:30.819Z,95756.8
2018-11-10T20:29:26.908Z,95882
2018-11-10T20:34:22.299Z,95800.9
2018-11-10T20:39:17.832Z,95887
2018-11-10T20:44:13.865Z,95809
2018-11-10T20:49:09.213Z,95892.9
2018-11-10T20:54:04.774Z,95805.3
2018-11-10T20:59:00.596Z,95860.2
2018-11-10T21:03:56.338Z,95812.6
2018-11-10T21:08:51.884Z,95810.6
2018-11-10T21:13:47.815Z,95871.3
2018-11-10T21:18:43.605Z,95667.9
2018-11-10T21:23:39.391Z,95813.9
2018-11-10T21:28:35.146Z,95913.5
2018-11-10T21:33:30.568Z,95823.3
2018-11-10T21:38:26.192Z,95918.2
2018-11-10T21:43:21.885Z,95813.5
2018-11-10T21:48:17.563Z,95844.8
2018-11-10T21:53:13.999Z,95931.9
2018-11-10T21:58:09.711Z,95846.4
2018-11-10T22:03:06.083Z,95931.5
2018-11-10T22:08:01.235Z,95857.7
2018-11-10T22:12:57.340Z,95847
2018-11-10T22:17:52.708Z,95846.9
2018-11-10T22:22:48.667Z,95839.6
2018-11-10T22:27:44.335Z,95932.3
2018-11-10T22:32:39.827Z,95847.2
2018-11-10T22:37:35.563Z,95853.6
2018-11-10T22:42:31.786Z,95823.2
2018-11-10T22:47:27.446Z,95858.4
2018-11-10T22:52:23.519Z,95851.3
2018-11-10T22:57:19.522Z,95944.5
2018-11-10T23:02:15.088Z,95943
2018-11-10T23:07:10.604Z,95861.4
2018-11-10T23:12:06.217Z,95860.4
2018-11-10T23:17:02.102Z,95937.3
2018-11-10T23:21:57.379Z,95858
2018-11-10T23:26:53.434Z,95864
2018-11-10T23:31:49.079Z,95860.8
2018-11-10T23:36:45.564Z,95791.6
2018-11-10T23:41:41.222Z,95875.4
2018-11-10T23:46:37.025Z,95847.8
2018-11-10T23:51:32.967Z,95870.1
2018-11-10T23:56:28.901Z,95881.2
